Time;durP1;ratioP1;P1;durP2;ratioP2;P2;SDS_P1;SDS_P2;PMS_P1;PMS_P2;Temp;Humidity;BMP_temperature;BMP_pressure;BME280_temperature;BME280_humidity;BME280_pressure;Samples;Min_cycle;Max_cycle;Signal;HPM_P1;HPM_P2
2022/09/06 00:00:47;;;;;;;3.92;0.52;;;24.20;86.80;;;;;;4905014;29;20158;-73
2022/09/06 00:03:15;;;;;;;5.30;0.93;;;24.10;86.70;;;;;;4902036;29;20048;-75
2022/09/06 00:05:43;;;;;;;1.55;0.30;;;23.80;87.30;;;;;;4898768;29;20044;-74
2022/09/06 00:08:13;;;;;;;2.50;0.40;;;24.00;87.40;;;;;;4900843;29;20140;-72
2022/09/06 00:10:41;;;;;;;1.63;0.70;;;24.20;86.40;;;;;;4903066;29;20132;-76
2022/09/06 00:13:10;;;;;;;0.57;0.30;;;24.30;86.40;;;;;;4902781;29;20028;-75
2022/09/06 00:15:38;;;;;;;2.60;0.60;;;24.50;86.00;;;;;;4903427;29;20032;-73
2022/09/06 00:18:07;;;;;;;2.60;0.45;;;24.30;85.00;;;;;;4906396;29;20116;-75
2022/09/06 00:20:40;;;;;;;1.70;0.50;;;24.10;87.30;;;;;;4897554;29;20036;-76
2022/09/06 00:23:07;;;;;;;2.28;0.45;;;24.50;85.50;;;;;;4900778;29;20112;-79
2022/09/06 00:25:35;;;;;;;4.97;0.63;;;23.60;85.60;;;;;;4900640;29;20032;-78
2022/09/06 00:28:04;;;;;;;3.35;0.43;;;22.60;86.50;;;;;;4898774;29;20092;-75
2022/09/06 00:30:33;;;;;;;28.83;12.70;;;22.90;87.70;;;;;;4899846;29;20033;-74
2022/09/06 00:33:00;;;;;;;57.08;14.85;;;23.70;85.80;;;;;;4901182;29;20039;-75
2022/09/06 00:35:29;;;;;;;33.75;30.15;;;23.10;86.20;;;;;;4898600;29;20032;-76
2022/09/06 00:38:01;;;;;;;2.33;0.40;;;22.40;85.70;;;;;;4899399;29;20067;-72
2022/09/06 00:40:32;;;;;;;0.70;0.20;;;22.10;87.60;;;;;;4898076;29;20040;-77
2022/09/06 00:42:59;;;;;;;2.17;0.30;;;22.50;87.10;;;;;;4898819;29;20355;-74
2022/09/06 00:45:29;;;;;;;2.80;0.38;;;22.10;87.60;;;;;;4896385;29;20025;-78
2022/09/06 00:47:57;;;;;;;2.60;0.43;;;21.60;88.10;;;;;;4900006;29;20035;-73
2022/09/06 00:50:26;;;;;;;0.82;0.30;;;21.10;88.70;;;;;;4898881;29;20043;-73
2022/09/06 00:52:55;;;;;;;2.22;0.38;;;20.80;89.00;;;;;;4897671;29;20032;-72
2022/09/06 00:55:25;;;;;;;1.15;0.20;;;20.50;89.60;;;;;;4897243;29;20035;-73
2022/09/06 00:57:53;;;;;;;2.85;0.45;;;20.40;89.50;;;;;;4895516;29;20036;-73
2022/09/06 01:00:20;;;;;;;3.85;0.35;;;20.70;89.90;;;;;;4895618;29;20131;-73
2022/09/06 01:02:49;;;;;;;0.85;0.30;;;21.60;89.10;;;;;;4898335;29;20048;-72
2022/09/06 01:05:17;;;;;;;2.63;0.30;;;22.70;86.90;;;;;;4892556;29;20044;-72
2022/09/06 01:08:05;;;;;;;3.92;0.60;;;23.20;86.30;;;;;;4886759;29;20035;-71
2022/09/06 01:10:54;;;;;;;5.78;0.45;;;23.50;85.20;;;;;;4897681;29;20055;-71
2022/09/06 01:13:43;;;;;;;1.05;0.15;;;23.40;84.40;;;;;;4897519;29;20028;-71
2022/09/06 01:16:53;;;;;;;2.08;0.50;;;22.80;86.80;;;;;;4900493;29;20112;-72
2022/09/06 01:19:42;;;;;;;1.90;0.22;;;22.30;87.30;;;;;;4861406;29;20152;-72
2022/09/06 01:22:27;;;;;;;1.98;0.25;;;21.70;87.70;;;;;;4904330;29;20484;-72
2022/09/06 01:25:10;;;;;;;0.70;0.20;;;21.30;88.70;;;;;;4900126;29;20032;-72
2022/09/06 01:28:06;;;;;;;2.47;0.35;;;21.20;89.50;;;;;;4902999;29;20091;-72
2022/09/06 01:30:37;;;;;;;6.90;0.47;;;21.40;89.70;;;;;;4863324;29;20512;-73
2022/09/06 01:33:34;;;;;;;115.45;67.78;;;22.40;89.10;;;;;;4903474;29;20092;-72
2022/09/06 01:36:06;;;;;;;2.28;0.43;;;23.40;87.70;;;;;;4872474;29;20209;-72
2022/09/06 01:38:34;;;;;;;2.08;0.20;;;23.40;85.60;;;;;;4900624;29;20044;-71
2022/09/06 01:41:02;;;;;;;2.60;0.22;;;22.70;85.50;;;;;;4900369;29;20044;-71
2022/09/06 01:43:37;;;;;;;1.10;0.30;;;22.30;85.60;;;;;;4908870;29;20054;-72
2022/09/06 01:46:25;;;;;;;2.33;0.50;;;22.60;84.90;;;;;;4903306;29;20036;-72
2022/09/06 01:49:14;;;;;;;3.10;0.40;;;22.40;85.90;;;;;;4905233;29;20044;-72
2022/09/06 01:51:59;;;;;;;33.00;15.30;;;21.70;86.80;;;;;;4902539;29;20032;-71
2022/09/06 01:54:52;;;;;;;12.40;11.47;;;21.00;87.30;;;;;;4907178;29;20035;-73
2022/09/06 01:57:23;;;;;;;1.83;0.40;;;20.40;88.40;;;;;;4894773;29;20306;-72
2022/09/06 02:00:17;;;;;;;3.92;0.60;;;19.70;91.00;;;;;;4906349;29;20044;-72
2022/09/06 02:02:47;;;;;;;1.88;0.50;;;19.30;91.80;;;;;;4902886;29;20054;-73
2022/09/06 02:05:23;;;;;;;1.20;0.50;;;18.90;92.20;;;;;;4903559;29;20031;-73
2022/09/06 02:07:55;;;;;;;2.45;0.55;;;18.70;93.00;;;;;;4908937;29;20499;-72
2022/09/06 02:10:40;;;;;;;2.65;0.68;;;18.50;93.00;;;;;;4898808;29;20103;-73
2022/09/06 02:13:10;;;;;;;1.70;0.60;;;18.30;93.10;;;;;;4908190;29;20040;-74
2022/09/06 02:15:45;;;;;;;97.72;79.30;;;18.30;93.30;;;;;;4906572;29;20128;-74
2022/09/06 02:18:21;;;;;;;3.75;0.45;;;18.20;93.10;;;;;;4911228;29;20095;-73
2022/09/06 02:20:55;;;;;;;7.45;0.57;;;18.00;93.20;;;;;;4906766;29;20083;-71
2022/09/06 02:23:29;;;;;;;4.47;0.28;;;17.90;93.10;;;;;;4910642;29;20040;-72
2022/09/06 02:26:15;;;;;;;3.20;0.70;;;17.80;93.00;;;;;;4906507;29;20479;-72
2022/09/06 02:28:44;;;;;;;2.03;0.25;;;17.70;93.20;;;;;;4907761;29;20035;-72
2022/09/06 02:31:17;;;;;;;5.57;0.52;;;17.60;93.40;;;;;;4886335;29;20044;-73
2022/09/06 02:33:50;;;;;;;2.38;0.63;;;17.60;93.60;;;;;;4905232;29;20031;-73
2022/09/06 02:36:18;;;;;;;2.50;0.40;;;17.50;93.70;;;;;;4905550;29;20044;-72
2022/09/06 02:38:46;;;;;;;2.53;0.50;;;17.50;93.90;;;;;;4902654;29;20120;-73
2022/09/06 02:41:17;;;;;;;1.20;0.22;;;17.60;93.60;;;;;;4899055;29;20092;-74
2022/09/06 02:43:45;;;;;;;2.47;1.05;;;17.50;93.70;;;;;;4901292;29;20071;-73
2022/09/06 02:46:15;;;;;;;2.90;0.60;;;17.60;93.50;;;;;;4900852;29;20043;-74
2022/09/06 02:48:43;;;;;;;2.88;0.20;;;17.60;93.30;;;;;;4901192;29;20039;-72
2022/09/06 02:51:13;;;;;;;1.92;0.88;;;17.60;93.30;;;;;;4904158;29;20032;-72
2022/09/06 02:53:41;;;;;;;2.70;0.50;;;17.70;93.50;;;;;;4903788;29;20132;-72
2022/09/06 02:56:08;;;;;;;3.83;0.32;;;17.70;93.40;;;;;;4912482;29;20032;-73
2022/09/06 02:58:36;;;;;;;3.35;0.80;;;17.80;93.20;;;;;;4913555;29;20400;-73
2022/09/06 03:01:03;;;;;;;1.83;0.32;;;17.90;93.00;;;;;;4911227;29;20742;-73
2022/09/06 03:03:31;;;;;;;3.63;0.40;;;17.90;92.90;;;;;;4903897;29;20503;-73
2022/09/06 03:05:58;;;;;;;1.65;0.52;;;18.00;92.90;;;;;;4905546;29;20388;-72
2022/09/06 03:08:28;;;;;;;1.23;0.38;;;18.20;93.20;;;;;;4908235;29;20475;-71
2022/09/06 03:10:56;;;;;;;1.80;0.40;;;18.40;93.20;;;;;;4911476;29;20082;-73
2022/09/06 03:13:25;;;;;;;2.03;0.93;;;18.50;93.40;;;;;;4906647;29;20052;-72
2022/09/06 03:15:58;;;;;;;5.88;0.60;;;18.50;93.40;;;;;;4908848;29;20543;-73
2022/09/06 03:18:27;;;;;;;1.55;0.40;;;18.60;93.30;;;;;;4906000;29;20028;-73
2022/09/06 03:20:55;;;;;;;3.35;1.27;;;18.60;93.50;;;;;;4908001;29;20471;-73
2022/09/06 03:23:28;;;;;;;5.70;1.25;;;18.70;93.70;;;;;;4902773;29;20496;-72
2022/09/06 03:25:56;;;;;;;2.40;0.50;;;18.70;93.70;;;;;;4903140;29;20031;-71
2022/09/06 03:28:24;;;;;;;1.80;0.25;;;18.70;93.30;;;;;;4910800;29;20372;-71
2022/09/06 03:30:52;;;;;;;4.60;0.30;;;18.60;93.30;;;;;;4902216;29;20029;-72
2022/09/06 03:33:21;;;;;;;6.10;1.60;;;18.70;93.10;;;;;;4907094;29;20094;-71
2022/09/06 03:35:56;;;;;;;2.75;1.90;;;18.70;93.30;;;;;;4908823;29;20040;-72
2022/09/06 03:38:25;;;;;;;2.97;0.50;;;18.70;93.60;;;;;;4907379;29;20036;-73
2022/09/06 03:40:53;;;;;;;2.83;0.50;;;18.80;93.30;;;;;;4909292;29;20044;-72
2022/09/06 03:43:22;;;;;;;6.07;0.70;;;18.90;93.50;;;;;;4911204;29;20043;-72
2022/09/06 03:45:52;;;;;;;4.50;0.45;;;19.00;92.30;;;;;;4910355;29;20032;-73
2022/09/06 03:48:21;;;;;;;2.10;0.38;;;19.10;92.30;;;;;;4911920;29;20097;-73
2022/09/06 03:50:54;;;;;;;1.58;0.43;;;19.30;91.90;;;;;;4906411;29;20387;-72
2022/09/06 03:53:22;;;;;;;1.67;0.68;;;19.90;92.20;;;;;;4902599;29;20039;-74
2022/09/06 03:55:52;;;;;;;1.42;0.35;;;20.50;92.70;;;;;;4903283;29;20360;-76
2022/09/06 03:58:22;;;;;;;2.85;0.45;;;20.10;92.70;;;;;;4904877;29;20119;-74
2022/09/06 04:00:58;;;;;;;2.55;0.70;;;19.70;93.90;;;;;;4907248;29;20135;-73
2022/09/06 04:03:25;;;;;;;0.73;0.20;;;19.60;94.60;;;;;;4902849;29;20044;-74
2022/09/06 04:05:53;;;;;;;2.95;0.85;;;19.80;94.70;;;;;;4905030;29;21013;-73
2022/09/06 04:08:20;;;;;;;1.75;0.20;;;20.00;94.40;;;;;;4904993;29;20063;-74
2022/09/06 04:10:50;;;;;;;1.90;0.30;;;20.00;93.80;;;;;;4910315;29;20527;-74
2022/09/06 04:13:18;;;;;;;3.90;0.45;;;19.90;93.50;;;;;;4907773;29;20111;-74
2022/09/06 04:15:49;;;;;;;1.08;0.20;;;19.50;94.10;;;;;;4899544;29;20028;-73
2022/09/06 04:18:18;;;;;;;3.83;0.30;;;19.20;94.50;;;;;;4910768;29;20035;-74
2022/09/06 04:20:49;;;;;;;3.17;0.30;;;18.90;94.70;;;;;;4907150;29;20458;-73
2022/09/06 04:23:18;;;;;;;1.73;0.20;;;18.50;95.10;;;;;;4902453;29;20028;-73
2022/09/06 04:25:50;;;;;;;2.67;0.50;;;18.30;95.30;;;;;;4903322;29;20047;-74
2022/09/06 04:28:18;;;;;;;3.15;0.30;;;18.30;95.70;;;;;;4902208;29;20115;-74
2022/09/06 04:30:53;;;;;;;1.27;0.55;;;18.10;96.10;;;;;;4908267;29;20024;-73
2022/09/06 04:33:24;;;;;;;1.93;0.33;;;18.10;96.50;;;;;;4910729;29;20115;-74
2022/09/06 04:35:57;;;;;;;1.42;0.25;;;18.10;96.50;;;;;;4904514;29;20032;-73
2022/09/06 04:38:25;;;;;;;2.58;0.30;;;18.20;96.70;;;;;;4901209;29;20033;-71
2022/09/06 04:40:56;;;;;;;2.45;0.30;;;18.30;96.60;;;;;;4894207;29;20127;-72
2022/09/06 04:43:25;;;;;;;3.83;0.40;;;18.50;96.60;;;;;;4904525;29;20083;-73
2022/09/06 04:45:53;;;;;;;2.53;0.85;;;18.60;96.50;;;;;;4903046;29;20066;-73
2022/09/06 04:48:20;;;;;;;2.47;0.52;;;18.60;96.60;;;;;;4908280;29;20110;-74
2022/09/06 04:50:47;;;;;;;2.28;0.43;;;18.50;96.40;;;;;;4910223;29;20028;-73
2022/09/06 04:53:15;;;;;;;4.47;0.32;;;18.50;96.60;;;;;;4911372;29;20050;-74
2022/09/06 04:55:42;;;;;;;0.63;0.13;;;18.40;96.70;;;;;;4905865;29;20151;-73
2022/09/06 04:58:10;;;;;;;1.02;0.40;;;18.40;97.00;;;;;;4905338;29;20025;-73
2022/09/06 05:00:38;;;;;;;8.85;0.52;;;18.30;97.20;;;;;;4908001;29;20040;-72
2022/09/06 05:03:05;;;;;;;1.75;0.60;;;18.30;97.40;;;;;;4906253;29;20176;-73
2022/09/06 05:05:33;;;;;;;1.88;0.55;;;18.30;97.00;;;;;;4909762;29;20079;-75
2022/09/06 05:08:00;;;;;;;2.53;0.68;;;18.40;97.40;;;;;;4905863;29;20048;-74
2022/09/06 05:10:28;;;;;;;2.03;0.40;;;18.50;97.70;;;;;;4902678;29;20052;-75
2022/09/06 05:12:55;;;;;;;1.83;0.40;;;18.60;98.10;;;;;;4903638;29;20064;-76
2022/09/06 05:15:32;;;;;;;4.80;0.57;;;18.50;97.80;;;;;;4899281;29;20496;-74
2022/09/06 05:18:04;;;;;;;1.95;0.40;;;18.40;97.10;;;;;;4904060;29;20444;-74
2022/09/06 05:20:32;;;;;;;1.70;0.30;;;18.30;96.90;;;;;;4907319;29;20043;-74
2022/09/06 05:23:00;;;;;;;1.48;0.30;;;18.30;97.20;;;;;;4898169;29;20024;-75
2022/09/06 05:25:27;;;;;;;1.95;0.20;;;18.40;97.20;;;;;;4907136;29;20503;-74
2022/09/06 05:27:55;;;;;;;2.78;0.28;;;18.50;96.90;;;;;;4901532;29;20040;-74
2022/09/06 05:30:22;;;;;;;2.05;0.40;;;18.60;96.40;;;;;;4903130;29;20723;-73
2022/09/06 05:32:51;;;;;;;0.77;0.22;;;18.60;96.30;;;;;;4906098;29;20020;-74
2022/09/06 05:35:18;;;;;;;3.00;0.50;;;18.40;96.20;;;;;;4906156;29;20040;-74
2022/09/06 05:37:45;;;;;;;2.00;0.30;;;18.30;96.10;;;;;;4903666;29;20028;-73
2022/09/06 05:40:13;;;;;;;1.25;0.25;;;18.10;96.40;;;;;;4901908;29;20036;-74
2022/09/06 05:42:40;;;;;;;2.05;0.30;;;18.00;96.60;;;;;;4908145;29;20499;-74
2022/09/06 05:45:08;;;;;;;0.68;0.57;;;18.10;96.30;;;;;;4898302;29;20032;-73
2022/09/06 05:47:35;;;;;;;1.70;0.50;;;18.20;96.60;;;;;;4907972;29;20612;-74
2022/09/06 05:50:05;;;;;;;3.88;0.35;;;18.50;96.10;;;;;;4909030;29;20039;-74
2022/09/06 05:52:34;;;;;;;4.63;0.45;;;18.60;96.00;;;;;;4900824;29;20077;-74
2022/09/06 05:55:03;;;;;;;2.45;0.25;;;18.90;96.10;;;;;;4899040;29;20039;-73
2022/09/06 05:57:30;;;;;;;7.65;3.28;;;18.80;95.70;;;;;;4904884;29;20033;-74
2022/09/06 05:59:58;;;;;;;3.55;0.30;;;18.60;96.10;;;;;;4908010;29;20043;-74
2022/09/06 06:02:25;;;;;;;2.00;0.65;;;18.50;96.20;;;;;;4900246;29;20032;-73
2022/09/06 06:04:53;;;;;;;1.92;0.30;;;18.40;96.20;;;;;;4909727;29;20336;-74
2022/09/06 06:07:21;;;;;;;0.75;0.30;;;18.30;96.20;;;;;;4911559;29;20531;-74
2022/09/06 06:09:48;;;;;;;2.90;0.38;;;18.10;96.00;;;;;;4896644;29;20060;-74
2022/09/06 06:12:15;;;;;;;2.60;0.20;;;18.00;96.30;;;;;;4914800;29;20471;-74
2022/09/06 06:14:43;;;;;;;2.50;0.40;;;17.80;96.70;;;;;;4912519;29;20593;-73
2022/09/06 06:17:10;;;;;;;0.68;0.30;;;17.60;97.40;;;;;;4911310;29;20483;-74
2022/09/06 06:19:38;;;;;;;2.45;1.58;;;17.50;97.80;;;;;;4912519;29;20032;-73
2022/09/06 06:22:06;;;;;;;2.08;0.20;;;17.30;98.20;;;;;;4915134;29;20063;-73
2022/09/06 06:24:34;;;;;;;2.67;0.30;;;17.20;98.60;;;;;;4914946;29;20020;-74
2022/09/06 06:27:01;;;;;;;2.28;0.70;;;17.00;98.80;;;;;;4908698;29;20199;-74
2022/09/06 06:29:28;;;;;;;3.63;0.32;;;17.00;98.80;;;;;;4915148;29;20492;-73
2022/09/06 06:31:56;;;;;;;2.05;0.65;;;16.90;98.70;;;;;;4912210;29;20468;-73
2022/09/06 06:34:23;;;;;;;6.55;0.50;;;16.90;98.90;;;;;;4913966;29;20032;-73
2022/09/06 06:36:51;;;;;;;0.90;0.20;;;16.70;98.40;;;;;;4892586;29;20036;-73
2022/09/06 06:39:18;;;;;;;2.60;0.38;;;16.60;98.90;;;;;;4908951;29;20131;-76
2022/09/06 06:41:47;;;;;;;0.35;0.20;;;16.60;98.60;;;;;;4911096;29;20058;-74
2022/09/06 06:44:15;;;;;;;2.85;0.32;;;16.50;99.10;;;;;;4910335;29;20025;-73
2022/09/06 06:46:42;;;;;;;0.30;0.22;;;16.50;99.20;;;;;;4912204;29;20357;-74
2022/09/06 06:49:10;;;;;;;1.38;0.55;;;16.60;99.50;;;;;;4908054;29;20395;-74
2022/09/06 06:51:38;;;;;;;1.90;0.32;;;16.60;99.60;;;;;;4908435;29;20024;-74
2022/09/06 06:54:06;;;;;;;0.80;0.40;;;16.50;99.80;;;;;;4915647;29;20020;-73
2022/09/06 06:56:39;;;;;;;3.83;0.55;;;16.50;99.90;;;;;;4913489;29;20600;-75
2022/09/06 06:59:08;;;;;;;2.33;0.80;;;16.40;99.90;;;;;;4909249;29;20060;-73
2022/09/06 07:01:36;;;;;;;5.05;1.42;;;16.30;99.90;;;;;;4911757;29;20039;-74
2022/09/06 07:04:05;;;;;;;6.03;2.30;;;16.20;99.90;;;;;;4914101;29;20031;-80
2022/09/06 07:06:47;;;;;;;6.18;2.88;;;16.10;99.90;;;;;;4912870;29;20032;-77
2022/09/06 07:09:16;;;;;;;10.90;6.05;;;16.00;99.90;;;;;;4913740;29;20052;-75
2022/09/06 07:11:45;;;;;;;10.55;7.88;;;15.90;99.90;;;;;;4907878;29;20043;-73
2022/09/06 07:14:12;;;;;;;12.27;7.85;;;15.80;99.90;;;;;;4913132;29;20394;-74
2022/09/06 07:16:40;;;;;;;7.25;5.20;;;15.80;99.90;;;;;;4907055;29;20081;-75
2022/09/06 07:19:07;;;;;;;6.03;3.38;;;15.70;99.90;;;;;;4924326;29;20141;-73
2022/09/06 07:21:35;;;;;;;8.25;2.65;;;15.70;99.90;;;;;;4905477;29;20399;-74
2022/09/06 07:24:04;;;;;;;4.93;2.70;;;15.70;99.90;;;;;;4915031;29;20036;-77
2022/09/06 07:26:31;;;;;;;2.58;1.30;;;15.60;99.90;;;;;;4904953;29;20119;-74
2022/09/06 07:29:01;;;;;;;4.80;1.35;;;15.50;99.90;;;;;;4913663;29;20067;-75
2022/09/06 07:31:31;;;;;;;3.03;1.23;;;15.50;99.90;;;;;;4911384;29;20024;-73
2022/09/06 07:33:58;;;;;;;2.67;1.83;;;15.40;99.90;;;;;;4908205;29;20037;-75
2022/09/06 07:36:26;;;;;;;3.70;2.53;;;15.40;99.90;;;;;;4899709;29;20396;-76
2022/09/06 07:38:53;;;;;;;5.50;1.65;;;15.40;99.90;;;;;;4911406;29;20044;-74
2022/09/06 07:41:21;;;;;;;2.90;2.08;;;15.30;99.90;;;;;;4912105;29;20052;-74
2022/09/06 07:43:53;;;;;;;3.95;2.17;;;15.20;99.90;;;;;;4914455;29;20155;-74
2022/09/06 07:46:21;;;;;;;6.00;2.97;;;15.20;99.90;;;;;;4912971;29;20127;-74
2022/09/06 07:48:48;;;;;;;279.55;181.80;;;15.20;99.90;;;;;;4912787;29;20063;-75
2022/09/06 07:51:19;;;;;;;9.15;5.78;;;15.10;99.90;;;;;;4915318;29;20033;-73
2022/09/06 07:53:54;;;;;;;8.73;4.82;;;15.10;99.90;;;;;;4914013;29;20083;-75
2022/09/06 07:56:23;;;;;;;11.00;5.35;;;15.10;99.90;;;;;;4911154;29;20040;-75
2022/09/06 07:58:51;;;;;;;11.55;6.78;;;15.00;99.90;;;;;;4911174;29;20173;-73
2022/09/06 08:01:34;;;;;;;9.70;5.18;;;15.00;99.90;;;;;;4910504;29;20134;-75
2022/09/06 08:04:12;;;;;;;6.43;4.80;;;15.00;99.90;;;;;;4912555;29;20383;-73
2022/09/06 08:06:47;;;;;;;6.90;4.45;;;15.00;99.90;;;;;;4912322;29;20386;-74
2022/09/06 08:09:15;;;;;;;7.13;4.55;;;15.00;99.90;;;;;;4896006;29;20060;-75
2022/09/06 08:11:42;;;;;;;16.58;5.90;;;15.00;99.90;;;;;;4909984;29;20024;-74
2022/09/06 08:14:10;;;;;;;7.93;4.82;;;14.90;99.90;;;;;;4914153;29;20460;-73
2022/09/06 08:16:38;;;;;;;5.75;3.28;;;14.90;99.90;;;;;;4907743;29;20036;-73
2022/09/06 08:19:11;;;;;;;6.70;3.17;;;14.80;99.90;;;;;;4928233;29;20024;-74
2022/09/06 08:21:38;;;;;;;6.07;2.83;;;14.80;99.90;;;;;;4914327;29;20032;-74
2022/09/06 08:24:11;;;;;;;3.03;1.20;;;14.70;99.90;;;;;;4922491;29;20036;-75
2022/09/06 08:26:41;;;;;;;5.68;1.67;;;14.70;99.90;;;;;;4901580;29;20499;-74
2022/09/06 08:29:10;;;;;;;3.97;1.10;;;14.60;99.90;;;;;;4909434;29;20032;-74
2022/09/06 08:31:43;;;;;;;2.95;1.20;;;14.50;99.90;;;;;;4904144;29;20067;-77
2022/09/06 08:34:11;;;;;;;1.48;1.17;;;14.50;99.90;;;;;;4914555;29;20032;-73
2022/09/06 08:36:39;;;;;;;7.50;1.88;;;14.40;99.90;;;;;;4910986;29;20028;-74
2022/09/06 08:39:11;;;;;;;4.25;2.33;;;14.40;99.90;;;;;;4914548;29;20411;-75
2022/09/06 08:41:56;;;;;;;6.53;3.15;;;14.40;99.90;;;;;;4908348;29;20032;-74
2022/09/06 08:44:47;;;;;;;10.03;6.17;;;14.40;99.90;;;;;;4913966;29;20028;-73
2022/09/06 08:47:16;;;;;;;12.20;6.05;;;14.30;99.90;;;;;;4905012;29;20511;-74
2022/09/06 08:49:51;;;;;;;8.98;5.35;;;14.30;99.90;;;;;;4895707;29;20436;-74
2022/09/06 08:52:42;;;;;;;9.32;6.97;;;14.30;99.90;;;;;;4909324;29;20032;-73
2022/09/06 08:55:25;;;;;;;15.23;8.90;;;14.20;99.90;;;;;;4901415;29;20495;-75
2022/09/06 08:58:23;;;;;;;10.05;8.45;;;14.20;99.90;;;;;;4908482;29;20149;-75
2022/09/06 09:01:13;;;;;;;11.57;9.73;;;14.20;99.90;;;;;;4903371;29;20078;-75
2022/09/06 09:03:43;;;;;;;14.75;8.98;;;14.20;99.90;;;;;;4900894;29;20111;-73
2022/09/06 09:06:11;;;;;;;13.13;8.00;;;14.10;99.90;;;;;;4901158;29;20036;-74
2022/09/06 09:08:47;;;;;;;8.80;6.72;;;14.10;99.90;;;;;;4902934;29;20052;-75
2022/09/06 09:11:22;;;;;;;7.45;5.22;;;14.10;99.90;;;;;;4907545;29;20070;-73
2022/09/06 09:13:54;;;;;;;8.13;4.80;;;14.00;99.90;;;;;;4912038;29;20032;-74
2022/09/06 09:16:22;;;;;;;6.90;4.35;;;14.00;99.90;;;;;;4906069;29;20143;-73
2022/09/06 09:18:53;;;;;;;8.93;5.10;;;13.90;99.90;;;;;;4920661;29;20039;-72
2022/09/06 09:21:23;;;;;;;5.15;3.58;;;13.80;99.90;;;;;;4912311;29;20493;-74
2022/09/06 09:23:58;;;;;;;5.43;4.47;;;13.80;99.90;;;;;;4912093;29;20083;-73
2022/09/06 09:26:30;;;;;;;7.22;4.80;;;13.80;99.90;;;;;;4916192;29;20030;-74
2022/09/06 09:29:11;;;;;;;7.70;6.03;;;13.70;99.90;;;;;;4912898;29;20091;-74
2022/09/06 09:31:53;;;;;;;7.60;6.80;;;13.70;99.90;;;;;;4905594;29;20039;-74
2022/09/06 09:34:36;;;;;;;10.32;5.75;;;13.70;99.90;;;;;;4906477;29;20032;-75
2022/09/06 09:37:23;;;;;;;7.28;5.05;;;13.70;99.90;;;;;;4912670;29;20063;-74
2022/09/06 09:39:53;;;;;;;5.57;4.35;;;13.70;99.90;;;;;;4906722;29;20504;-75
2022/09/06 09:42:36;;;;;;;3.70;2.70;;;13.70;99.90;;;;;;4903035;29;20146;-73
2022/09/06 09:45:27;;;;;;;4.97;1.88;;;13.80;99.90;;;;;;4903275;29;20032;-74
2022/09/06 09:47:55;;;;;;;3.33;1.38;;;13.80;99.90;;;;;;4913472;29;20036;-73
2022/09/06 09:50:27;;;;;;;2.45;1.15;;;13.80;99.90;;;;;;4904321;29;20032;-75
2022/09/06 09:52:55;;;;;;;2.67;1.35;;;13.80;99.90;;;;;;4906786;29;20040;-75
2022/09/06 09:55:25;;;;;;;5.00;2.25;;;13.90;99.90;;;;;;4911762;29;20301;-75
2022/09/06 09:57:54;;;;;;;4.30;2.80;;;13.90;99.90;;;;;;4907364;29;20824;-77
2022/09/06 10:00:42;;;;;;;4.50;2.15;;;13.90;99.90;;;;;;4904342;29;20051;-74
2022/09/06 10:03:25;;;;;;;2.38;0.90;;;13.90;99.90;;;;;;4900691;29;20032;-75
2022/09/06 10:05:59;;;;;;;2.17;0.98;;;13.90;99.90;;;;;;4905365;29;20032;-75
2022/09/06 10:08:30;;;;;;;2.85;1.88;;;14.00;99.90;;;;;;4915920;29;20055;-75
2022/09/06 10:10:57;;;;;;;4.25;2.83;;;13.90;99.90;;;;;;4898032;29;20434;-73
2022/09/06 10:13:30;;;;;;;6.70;2.58;;;13.90;99.90;;;;;;4913511;29;20055;-75
2022/09/06 10:16:01;;;;;;;3.83;2.17;;;13.90;99.90;;;;;;4911569;29;20020;-74
2022/09/06 10:18:35;;;;;;;1.92;1.67;;;13.90;99.90;;;;;;4912758;29;20115;-73
2022/09/06 10:21:07;;;;;;;6.00;1.35;;;13.80;99.90;;;;;;4908382;29;20055;-72
2022/09/06 10:24:31;;;;;;;1.95;1.23;;;13.80;99.90;;;;;;4918534;29;20040;-72
2022/09/06 10:27:02;;;;;;;1.98;0.98;;;13.70;99.90;;;;;;4831387;29;20022;-74
2022/09/06 10:29:54;;;;;;;3.30;0.88;;;13.70;99.90;;;;;;4836272;29;20370;-74
2022/09/06 10:32:34;;;;;;;2.33;0.65;;;13.70;99.90;;;;;;4884016;29;20037;-74
2022/09/06 10:35:08;;;;;;;2.22;0.60;;;13.60;99.90;;;;;;4905727;29;20033;-76
2022/09/06 10:38:00;;;;;;;1.27;0.55;;;13.60;99.90;;;;;;4906368;29;20191;-75
2022/09/06 10:40:33;;;;;;;3.65;0.70;;;13.60;99.90;;;;;;4918180;29;20455;-74
2022/09/06 10:43:02;;;;;;;2.35;0.75;;;13.60;99.90;;;;;;4915335;29;20037;-74
2022/09/06 10:45:42;;;;;;;3.30;0.88;;;13.60;99.90;;;;;;4912006;29;20396;-75
2022/09/06 10:48:20;;;;;;;1.48;0.93;;;13.60;99.90;;;;;;4912936;29;20071;-76
2022/09/06 10:50:50;;;;;;;2.88;1.15;;;13.60;99.90;;;;;;4899119;29;20044;-76
2022/09/06 10:53:37;;;;;;;4.32;1.00;;;13.50;99.90;;;;;;4902452;29;20547;-75
2022/09/06 10:56:18;;;;;;;2.85;1.05;;;13.60;99.90;;;;;;4861410;29;20040;-74
2022/09/06 10:58:51;;;;;;;4.00;2.60;;;13.60;99.90;;;;;;4908510;29;20475;-73
2022/09/06 11:01:54;;;;;;;5.88;2.80;;;13.60;99.90;;;;;;4908036;29;20048;-75
2022/09/06 11:04:52;;;;;;;3.03;2.05;;;13.60;99.90;;;;;;4874790;29;20567;-75
2022/09/06 11:07:22;;;;;;;12.32;1.83;;;13.60;99.90;;;;;;4886905;29;20044;-77
2022/09/06 11:10:00;;;;;;;2.72;1.58;;;13.60;99.90;;;;;;4916331;29;20052;-75
2022/09/06 11:12:30;;;;;;;5.00;1.10;;;13.60;99.90;;;;;;4915068;29;20047;-76
2022/09/06 11:15:00;;;;;;;1.77;0.80;;;13.60;99.90;;;;;;4907662;29;20456;-76
2022/09/06 11:17:35;;;;;;;2.17;0.80;;;13.60;99.90;;;;;;4913956;29;20172;-76
2022/09/06 11:20:52;;;;;;;2.47;0.70;;;13.60;99.90;;;;;;4924771;29;20040;-76
2022/09/06 11:24:13;;;;;;;3.33;1.13;;;13.50;99.90;;;;;;4871986;29;20048;-75
2022/09/06 11:27:01;;;;;;;3.60;0.85;;;13.50;99.90;;;;;;4818465;29;20042;-74
2022/09/06 11:29:31;;;;;;;2.35;1.00;;;13.40;99.90;;;;;;4896828;29;20075;-75
2022/09/06 11:32:03;;;;;;;4.50;1.55;;;13.40;99.90;;;;;;4908180;29;20036;-75
2022/09/06 11:34:39;;;;;;;1.98;0.75;;;13.40;99.90;;;;;;4905896;29;20070;-73
2022/09/06 11:37:08;;;;;;;1.85;0.60;;;13.30;99.90;;;;;;4912103;29;20044;-73
2022/09/06 11:39:35;;;;;;;5.82;0.80;;;13.30;99.90;;;;;;4922837;29;20127;-75
2022/09/06 11:42:29;;;;;;;2.53;1.08;;;13.30;99.90;;;;;;4906339;29;20098;-75
2022/09/06 11:45:22;;;;;;;2.35;0.80;;;13.30;99.90;;;;;;4896017;29;20040;-74
2022/09/06 11:47:56;;;;;;;2.55;1.13;;;13.30;99.90;;;;;;4912925;29;20032;-76
2022/09/06 11:50:25;;;;;;;1.88;0.80;;;13.30;99.90;;;;;;4899739;29;20563;-73
2022/09/06 11:53:17;;;;;;;2.90;0.80;;;13.30;99.90;;;;;;4912381;29;20036;-73
2022/09/06 11:55:49;;;;;;;3.80;0.68;;;13.20;99.90;;;;;;4904965;29;20123;-75
2022/09/06 11:58:17;;;;;;;2.25;1.30;;;13.20;99.90;;;;;;4913386;29;20036;-74
2022/09/06 12:00:46;;;;;;;3.67;0.90;;;13.20;99.90;;;;;;4907700;29;20055;-74
2022/09/06 12:03:51;;;;;;;1.85;0.80;;;13.20;99.90;;;;;;4911009;29;20918;-76
2022/09/06 12:06:28;;;;;;;2.63;1.23;;;13.10;99.90;;;;;;4908951;29;20028;-75
2022/09/06 12:08:57;;;;;;;1.55;0.77;;;13.10;99.90;;;;;;4911857;29;20117;-75
2022/09/06 12:11:41;;;;;;;2.03;0.80;;;12.90;99.90;;;;;;4908495;29;20024;-77
2022/09/06 12:14:35;;;;;;;3.38;0.93;;;12.90;99.90;;;;;;4909881;29;20055;-77
2022/09/06 12:17:06;;;;;;;2.72;0.88;;;12.80;99.90;;;;;;4908717;29;20099;-74
2022/09/06 12:19:48;;;;;;;1.55;0.93;;;12.70;99.90;;;;;;4913051;29;20036;-76
2022/09/06 12:22:28;;;;;;;2.08;0.77;;;12.60;99.90;;;;;;4916805;29;20525;-77
2022/09/06 12:25:17;;;;;;;3.92;0.88;;;12.50;99.90;;;;;;4911849;29;21006;-74
2022/09/06 12:27:58;;;;;;;1.10;0.80;;;12.50;99.90;;;;;;4896281;29;20036;-74
2022/09/06 12:30:41;;;;;;;3.17;1.10;;;12.40;99.90;;;;;;4910320;29;20071;-73
2022/09/06 12:33:18;;;;;;;5.43;1.10;;;12.30;99.90;;;;;;4904987;29;20036;-72
2022/09/06 12:35:46;;;;;;;1.48;0.77;;;12.30;99.90;;;;;;4901700;29;20036;-73
2022/09/06 12:38:15;;;;;;;1.95;0.93;;;12.20;99.90;;;;;;4903263;29;20035;-73
2022/09/06 12:40:50;;;;;;;1.38;0.75;;;12.20;99.90;;;;;;4903093;29;20180;-73
2022/09/06 12:43:19;;;;;;;1.73;0.77;;;12.10;99.90;;;;;;4901128;29;20096;-73
2022/09/06 12:45:52;;;;;;;2.70;1.95;;;12.00;99.90;;;;;;4902395;29;20134;-73
2022/09/06 12:48:32;;;;;;;6.00;1.00;;;12.00;99.90;;;;;;4904551;29;20028;-75
2022/09/06 12:51:12;;;;;;;4.35;1.75;;;11.90;99.90;;;;;;4903291;29;20028;-75
2022/09/06 12:53:39;;;;;;;2.08;0.93;;;11.90;99.90;;;;;;4899883;29;20079;-74
2022/09/06 12:56:12;;;;;;;4.40;0.95;;;11.90;99.90;;;;;;4900461;29;20151;-74
2022/09/06 12:58:40;;;;;;;2.08;0.98;;;11.90;99.90;;;;;;4899818;29;20032;-75
2022/09/06 13:01:15;;;;;;;1.67;0.98;;;11.80;99.90;;;;;;4898083;29;20687;-74
2022/09/06 13:03:57;;;;;;;4.53;1.50;;;11.80;99.90;;;;;;4908009;29;20498;-75
2022/09/06 13:06:26;;;;;;;2.92;1.23;;;11.80;99.90;;;;;;4909007;29;20048;-74
2022/09/06 13:08:55;;;;;;;7.07;1.70;;;11.80;99.90;;;;;;4911573;29;20048;-73
2022/09/06 13:11:41;;;;;;;2.60;0.88;;;11.70;99.90;;;;;;4904246;29;20480;-75
2022/09/06 13:14:29;;;;;;;11.98;1.70;;;11.70;99.90;;;;;;4909162;29;20040;-75
2022/09/06 13:16:56;;;;;;;4.43;1.27;;;11.60;99.90;;;;;;4911256;29;20467;-75